createdAt,value
2023-03-06T00:02:57.838Z,4.95
2023-03-06T00:05:58.017Z,4.96
2023-03-06T00:08:57.817Z,4.95
2023-03-06T00:11:57.817Z,4.95
2023-03-06T00:14:57.813Z,4.95
2023-03-06T00:17:57.835Z,4.95
2023-03-06T00:20:57.813Z,4.95
2023-03-06T00:23:57.841Z,4.94
2023-03-06T00:26:57.822Z,4.93
2023-03-06T00:29:57.829Z,4.93
2023-03-06T00:32:57.826Z,4.92
2023-03-06T00:35:57.870Z,4.92
2023-03-06T00:38:57.833Z,4.92
2023-03-06T00:41:57.866Z,4.9
2023-03-06T00:44:57.840Z,4.9
2023-03-06T00:47:57.846Z,4.91
2023-03-06T00:50:57.852Z,4.9
2023-03-06T00:53:57.854Z,4.9
2023-03-06T00:56:57.858Z,4.9
2023-03-06T00:59:57.890Z,4.88
2023-03-06T01:02:57.876Z,4.86
2023-03-06T01:05:57.878Z,4.87
2023-03-06T01:08:57.866Z,4.87
2023-03-06T01:11:57.880Z,4.87
2023-03-06T01:14:57.877Z,4.84
2023-03-06T01:17:57.907Z,4.84
2023-03-06T01:20:57.886Z,4.85
2023-03-06T01:23:57.894Z,4.86
2023-03-06T01:26:57.897Z,4.86
2023-03-06T01:29:57.913Z,4.85
2023-03-06T01:32:57.913Z,4.84
2023-03-06T01:35:57.941Z,4.85
2023-03-06T01:38:58.052Z,4.84
2023-03-06T01:41:57.935Z,4.85
2023-03-06T01:44:57.933Z,4.86
2023-03-06T01:47:57.939Z,4.86
2023-03-06T01:50:57.944Z,4.86
2023-03-06T01:53:57.974Z,4.89
2023-03-06T01:56:57.955Z,4.88
2023-03-06T01:59:57.965Z,4.89
2023-03-06T02:02:57.962Z,4.89
2023-03-06T02:05:57.969Z,4.89
2023-03-06T02:08:57.978Z,4.89
2023-03-06T02:11:58.015Z,4.89
2023-03-06T02:14:57.994Z,4.92
2023-03-06T02:17:58.005Z,4.9
2023-03-06T02:20:58.006Z,4.89
2023-03-06T02:23:58.009Z,4.9
2023-03-06T02:26:58.016Z,4.9
2023-03-06T02:29:58.045Z,4.9
2023-03-06T02:32:58.023Z,4.9
2023-03-06T02:35:58.077Z,4.89
2023-03-06T02:38:58.040Z,4.9
2023-03-06T02:41:58.037Z,4.9
2023-03-06T02:44:58.040Z,4.91
2023-03-06T02:47:58.066Z,4.9
2023-03-06T02:50:58.045Z,4.91
2023-03-06T02:53:58.057Z,4.91
2023-03-06T02:56:58.058Z,4.92
2023-03-06T02:59:58.064Z,4.9
2023-03-06T03:02:58.074Z,4.9
2023-03-06T03:05:58.094Z,4.93
2023-03-06T03:08:58.080Z,4.91
2023-03-06T03:11:58.088Z,4.94
2023-03-06T03:14:58.087Z,4.96
2023-03-06T03:17:58.098Z,4.94
2023-03-06T03:20:58.097Z,4.97
2023-03-06T03:23:58.128Z,4.93
2023-03-06T03:26:58.111Z,4.97
2023-03-06T03:29:58.120Z,4.97
2023-03-06T03:32:58.131Z,4.99
2023-03-06T03:35:58.130Z,4.98
2023-03-06T03:38:58.145Z,4.99
2023-03-06T03:41:58.177Z,4.95
2023-03-06T03:44:58.166Z,4.96
2023-03-06T03:47:58.168Z,4.95
2023-03-06T03:50:58.182Z,4.96
2023-03-06T03:53:58.178Z,4.96
2023-03-06T03:56:58.180Z,4.97
2023-03-06T03:59:58.216Z,4.94
2023-03-06T04:02:58.296Z,4.94
2023-03-06T04:05:58.215Z,4.95
2023-03-06T04:08:58.200Z,4.96
2023-03-06T04:11:58.203Z,4.95
2023-03-06T04:14:58.215Z,4.95
2023-03-06T04:17:58.238Z,4.96
2023-03-06T04:20:58.220Z,4.96
2023-03-06T04:23:58.229Z,4.96
2023-03-06T04:26:58.240Z,4.95
2023-03-06T04:29:58.247Z,4.88
2023-03-06T04:32:58.255Z,4.84
2023-03-06T04:35:58.289Z,4.77
2023-03-06T04:38:58.295Z,4.78
2023-03-06T04:41:58.283Z,4.73
2023-03-06T04:44:58.289Z,4.73
2023-03-06T04:47:58.296Z,4.7
2023-03-06T04:50:58.293Z,4.71
2023-03-06T04:53:58.324Z,4.69
2023-03-06T04:56:58.318Z,4.7
2023-03-06T04:59:58.327Z,4.66
2023-03-06T05:02:58.336Z,4.67
2023-03-06T05:05:58.346Z,4.63
2023-03-06T05:08:58.345Z,4.64
2023-03-06T05:11:58.402Z,4.6
2023-03-06T05:14:58.351Z,4.6
2023-03-06T05:17:58.382Z,4.6
2023-03-06T05:20:58.367Z,4.61
2023-03-06T05:23:58.376Z,4.61
2023-03-06T05:26:58.379Z,4.61
2023-03-06T05:29:58.418Z,4.62
2023-03-06T05:32:58.393Z,4.62
2023-03-06T05:35:58.450Z,4.59
2023-03-06T05:38:58.407Z,4.59
2023-03-06T05:41:58.412Z,4.6
2023-03-06T05:44:58.423Z,4.61
2023-03-06T05:47:58.449Z,4.61
2023-03-06T05:50:58.429Z,4.62
2023-03-06T05:53:58.435Z,4.59
2023-03-06T05:56:58.435Z,4.6
2023-03-06T05:59:58.437Z,4.6
2023-03-06T06:02:58.446Z,4.58
2023-03-06T06:05:58.472Z,4.59
2023-03-06T06:08:58.454Z,4.6
2023-03-06T06:11:58.459Z,4.6
2023-03-06T06:14:58.475Z,4.61
2023-03-06T06:17:58.463Z,4.63
2023-03-06T06:20:58.470Z,4.61
2023-03-06T06:23:58.499Z,4.61
2023-03-06T06:26:58.485Z,4.62
2023-03-06T06:29:58.491Z,4.61
2023-03-06T06:32:58.494Z,4.58
2023-03-06T06:35:58.536Z,4.62
2023-03-06T06:38:58.497Z,4.62
2023-03-06T06:42:15.367Z,4.63
2023-03-06T06:44:58.508Z,4.63
2023-03-06T06:47:58.632Z,4.63
2023-03-06T06:50:58.514Z,4.63
2023-03-06T06:53:58.515Z,4.64
2023-03-06T06:56:58.529Z,4.64
2023-03-06T06:59:58.553Z,4.67
2023-03-06T07:02:58.553Z,4.67
2023-03-06T07:05:58.549Z,4.64
2023-03-06T07:08:58.543Z,4.67
2023-03-06T07:11:58.546Z,4.66
2023-03-06T07:14:58.557Z,4.66
2023-03-06T07:17:58.580Z,4.7
2023-03-06T07:21:01.033Z,4.69
2023-03-06T07:23:58.578Z,4.72
2023-03-06T07:26:58.737Z,4.74
2023-03-06T07:29:58.575Z,4.74
2023-03-06T07:32:58.580Z,4.76
2023-03-06T07:35:58.647Z,4.75
2023-03-06T07:38:58.591Z,4.74
2023-03-06T07:41:58.608Z,4.73
2023-03-06T07:44:58.597Z,4.73
2023-03-06T07:47:58.602Z,4.73
2023-03-06T07:50:58.608Z,4.75
2023-03-06T07:53:58.637Z,4.79
2023-03-06T07:56:58.614Z,4.81
2023-03-06T07:59:58.665Z,4.84
2023-03-06T08:02:58.658Z,4.85
2023-03-06T08:05:58.633Z,4.84
2023-03-06T08:08:58.643Z,4.82
2023-03-06T08:11:58.661Z,4.81
2023-03-06T08:14:58.644Z,4.78
2023-03-06T08:17:58.652Z,4.78
2023-03-06T08:20:58.656Z,4.78
2023-03-06T08:23:58.665Z,4.77
2023-03-06T08:26:58.662Z,4.77
2023-03-06T08:29:58.702Z,4.8
2023-03-06T08:32:58.666Z,4.8
2023-03-06T08:36:00.114Z,4.79
2023-03-06T08:38:58.673Z,4.79
2023-03-06T08:41:58.677Z,4.79
2023-03-06T08:44:58.696Z,4.76
2023-03-06T08:47:58.791Z,4.73
2023-03-06T08:50:58.735Z,4.74
2023-03-06T08:53:58.701Z,4.75
2023-03-06T08:56:58.715Z,4.72
2023-03-06T08:59:58.729Z,4.73
2023-03-06T09:02:58.749Z,4.7
2023-03-06T09:05:58.785Z,4.71
2023-03-06T09:08:58.728Z,4.72
2023-03-06T09:11:58.726Z,4.72
2023-03-06T09:14:58.733Z,4.76
2023-03-06T09:17:58.776Z,4.8
2023-03-06T09:20:58.736Z,4.82
2023-03-06T09:23:58.824Z,4.84
2023-03-06T09:26:58.753Z,4.86
2023-03-06T09:29:58.760Z,4.84
2023-03-06T09:32:58.762Z,4.86
2023-03-06T09:35:58.849Z,4.85
2023-03-06T09:38:58.785Z,4.85
2023-03-06T09:41:58.807Z,4.85
2023-03-06T09:44:58.808Z,4.81
2023-03-06T09:47:58.777Z,4.78
2023-03-06T09:50:58.881Z,4.79
2023-03-06T09:53:58.784Z,4.76
2023-03-06T09:56:58.792Z,4.73
2023-03-06T09:59:58.832Z,4.73
2023-03-06T10:02:58.867Z,4.74
2023-03-06T10:05:59.913Z,4.75
2023-03-06T10:08:58.808Z,4.79
2023-03-06T10:11:58.808Z,4.86
2023-03-06T10:14:58.813Z,4.89
2023-03-06T10:17:58.840Z,4.91
2023-03-06T10:21:04.682Z,4.93
2023-03-06T10:23:58.831Z,4.9
2023-03-06T10:26:58.924Z,4.89
2023-03-06T10:30:02.987Z,4.93
2023-03-06T10:32:58.931Z,4.91
2023-03-06T10:35:58.907Z,4.91
2023-03-06T10:38:58.887Z,4.94
2023-03-06T10:41:58.853Z,4.93
2023-03-06T10:44:58.858Z,4.94
2023-03-06T10:47:58.867Z,4.93
2023-03-06T10:51:01.059Z,4.95
2023-03-06T10:53:58.909Z,4.95
2023-03-06T10:56:58.876Z,4.95
2023-03-06T10:59:58.881Z,4.97
2023-03-06T11:02:58.873Z,5.04
2023-03-06T11:05:58.879Z,5.06
2023-03-06T11:08:58.898Z,5.1
2023-03-06T11:11:58.917Z,5.06
2023-03-06T11:14:58.894Z,5.07
2023-03-06T11:17:58.902Z,5.1
2023-03-06T11:20:58.909Z,5.08
2023-03-06T11:23:58.902Z,5.08
2023-03-06T11:26:58.907Z,5.08
2023-03-06T11:29:58.939Z,5.06
2023-03-06T11:32:58.919Z,5.1
2023-03-06T11:35:58.970Z,5.09
2023-03-06T11:38:58.920Z,5.1
2023-03-06T11:41:58.932Z,5.05
2023-03-06T11:45:00.287Z,5.02
2023-03-06T11:47:58.958Z,4.99
2023-03-06T11:50:58.935Z,4.97
2023-03-06T11:53:58.939Z,5.01
2023-03-06T11:56:58.952Z,5.06
2023-03-06T11:59:58.958Z,5.16
2023-03-06T12:02:58.975Z,5.12
2023-03-06T12:05:59.016Z,5.15
2023-03-06T12:08:58.965Z,5.15
2023-03-06T12:11:58.968Z,5.13
2023-03-06T12:14:58.969Z,5.15
2023-03-06T12:17:58.979Z,5.15
2023-03-06T12:20:58.980Z,5.2
2023-03-06T12:23:59.021Z,5.21
2023-03-06T12:26:58.996Z,5.05
2023-03-06T12:29:59.003Z,5.12
2023-03-06T12:32:58.994Z,5.1
2023-03-06T12:35:59.057Z,5.04
2023-03-06T12:38:59.005Z,5.02
2023-03-06T12:41:59.036Z,4.98
2023-03-06T12:44:59.009Z,4.99
2023-03-06T12:47:59.011Z,4.96
2023-03-06T12:50:59.022Z,4.98
2023-03-06T12:53:59.022Z,4.94
2023-03-06T12:56:59.031Z,4.89
2023-03-06T12:59:59.060Z,4.84
2023-03-06T13:02:59.047Z,4.75
2023-03-06T13:05:59.044Z,4.73
2023-03-06T13:08:59.043Z,4.72
2023-03-06T13:11:59.046Z,4.7
2023-03-06T13:14:59.064Z,4.65
2023-03-06T13:17:59.101Z,4.67
2023-03-06T13:20:59.062Z,4.59
2023-03-06T13:23:59.056Z,4.47
2023-03-06T13:26:59.059Z,4.57
2023-03-06T13:29:59.062Z,4.65
2023-03-06T13:32:59.074Z,4.73
2023-03-06T13:35:59.133Z,4.66
2023-03-06T13:38:59.056Z,4.66
2023-03-06T13:41:59.075Z,4.66
2023-03-06T13:44:59.057Z,4.69
2023-03-06T13:50:59.059Z,4.67
2023-03-06T13:53:59.168Z,4.74
2023-03-06T13:56:59.066Z,4.81
2023-03-06T14:00:06.918Z,4.71
2023-03-06T14:02:59.140Z,4.74
2023-03-06T14:05:59.087Z,4.67
2023-03-06T14:08:59.097Z,4.64
2023-03-06T14:11:59.145Z,4.64
2023-03-06T14:14:59.135Z,4.7
2023-03-06T14:17:59.149Z,4.74
2023-03-06T14:20:59.142Z,4.7
2023-03-06T14:24:00.505Z,4.74
2023-03-06T14:26:59.171Z,4.62
2023-03-06T14:29:59.190Z,4.64
2023-03-06T14:32:59.194Z,4.63
2023-03-06T14:35:59.240Z,4.6
2023-03-06T14:38:59.187Z,4.33
2023-03-06T14:41:59.183Z,4.44
2023-03-06T14:44:59.196Z,4.37
2023-03-06T14:47:59.226Z,4.37
2023-03-06T14:50:59.203Z,4.41
2023-03-06T14:53:59.196Z,4.37
2023-03-06T14:56:59.200Z,4.33
2023-03-06T14:59:59.208Z,4.35
2023-03-06T15:02:59.236Z,4.35
2023-03-06T15:05:59.292Z,4.34
2023-03-06T15:08:59.214Z,4.33
2023-03-06T15:11:59.210Z,4.37
2023-03-06T15:14:59.215Z,4.4
2023-03-06T15:17:59.229Z,4.4
2023-03-06T15:20:59.218Z,4.4
2023-03-06T15:23:59.289Z,4.4
2023-03-06T15:26:59.227Z,4.38
2023-03-06T15:29:59.222Z,4.4
2023-03-06T15:32:59.239Z,4.39
2023-03-06T15:35:59.225Z,4.4
2023-03-06T15:38:59.227Z,4.41
2023-03-06T15:41:59.262Z,4.39
2023-03-06T15:44:59.244Z,4.38
2023-03-06T15:47:59.245Z,4.4
2023-03-06T15:50:59.326Z,4.41
2023-03-06T15:54:10.046Z,4.41
2023-03-06T15:56:59.251Z,4.41
2023-03-06T15:59:59.265Z,4.41
2023-03-06T16:02:59.269Z,4.39
2023-03-06T16:05:59.249Z,4.4
2023-03-06T16:08:59.245Z,4.38
2023-03-06T16:11:59.252Z,4.36
2023-03-06T16:14:59.242Z,4.36
2023-03-06T16:17:59.293Z,4.35
2023-03-06T16:20:59.240Z,4.36
2023-03-06T16:23:59.250Z,4.37
2023-03-06T16:26:59.244Z,4.35
2023-03-06T16:29:59.241Z,4.35
2023-03-06T16:32:59.260Z,4.34
2023-03-06T16:35:59.436Z,4.32
2023-03-06T16:38:59.250Z,4.33
2023-03-06T16:41:59.253Z,4.3
2023-03-06T16:44:59.249Z,4.27
2023-03-06T16:48:00.116Z,4.27
2023-03-06T16:50:59.266Z,4.26
2023-03-06T16:53:59.289Z,4.27
2023-03-06T16:56:59.258Z,4.24
2023-03-06T16:59:59.259Z,4.24
2023-03-06T17:02:59.281Z,4.26
2023-03-06T17:05:59.267Z,4.3
2023-03-06T17:08:59.267Z,4.33
2023-03-06T17:11:59.292Z,4.33
2023-03-06T17:14:59.274Z,4.32
2023-03-06T17:17:59.286Z,4.31
2023-03-06T17:20:59.275Z,4.3
2023-03-06T17:23:59.273Z,4.29
2023-03-06T17:26:59.272Z,4.28
2023-03-06T17:29:59.303Z,4.28
2023-03-06T17:32:59.286Z,4.29
2023-03-06T17:35:59.282Z,4.27
2023-03-06T17:38:59.292Z,4.29
2023-03-06T17:41:59.284Z,4.27
2023-03-06T17:44:59.289Z,4.26
2023-03-06T17:47:59.323Z,4.25
2023-03-06T17:50:59.289Z,4.24
2023-03-06T17:53:59.289Z,4.26
2023-03-06T17:56:59.296Z,4.26
2023-03-06T17:59:59.391Z,4.25
2023-03-06T18:02:59.304Z,4.26
2023-03-06T18:05:59.319Z,4.24
2023-03-06T18:08:59.304Z,4.24
2023-03-06T18:11:59.294Z,4.26
2023-03-06T18:14:59.304Z,4.27
2023-03-06T18:17:59.303Z,4.26
2023-03-06T18:20:59.293Z,4.25
2023-03-06T18:23:59.328Z,4.23
2023-03-06T18:26:59.296Z,4.25
2023-03-06T18:29:59.296Z,4.24
2023-03-06T18:32:59.314Z,4.24
2023-03-06T18:35:59.301Z,4.22
2023-03-06T18:38:59.302Z,4.23
2023-03-06T18:41:59.337Z,4.23
2023-03-06T18:44:59.350Z,4.22
2023-03-06T18:47:59.441Z,4.21
2023-03-06T18:50:59.313Z,4.2
2023-03-06T18:53:59.312Z,4.17
2023-03-06T18:56:59.313Z,4.18
2023-03-06T18:59:59.343Z,4.15
2023-03-06T19:02:59.383Z,4.15
2023-03-06T19:05:59.323Z,4.14
2023-03-06T19:08:59.346Z,4.11
2023-03-06T19:11:59.334Z,4.12
2023-03-06T19:14:59.335Z,4.1
2023-03-06T19:17:59.369Z,4.14
2023-03-06T19:20:59.336Z,4.1
2023-03-06T19:23:59.344Z,4.11
2023-03-06T19:26:59.346Z,4.11
2023-03-06T19:29:59.352Z,4.11
2023-03-06T19:32:59.356Z,4.11
2023-03-06T19:35:59.385Z,4.09
2023-03-06T19:38:59.357Z,4.1
2023-03-06T19:41:59.362Z,4.1
2023-03-06T19:44:59.367Z,4.08
2023-03-06T19:47:59.374Z,4.08
2023-03-06T19:50:59.361Z,4.09
2023-03-06T19:53:59.413Z,4.1
2023-03-06T19:56:59.373Z,4.09
2023-03-06T19:59:59.367Z,4.1
2023-03-06T20:02:59.385Z,4.12
2023-03-06T20:05:59.370Z,4.09
2023-03-06T20:08:59.386Z,4.09
2023-03-06T20:11:59.401Z,4.09
2023-03-06T20:14:59.376Z,4.09
2023-03-06T20:17:59.387Z,4.1
2023-03-06T20:20:59.378Z,4.06
2023-03-06T20:23:59.376Z,4.06
2023-03-06T20:26:59.392Z,4.06
2023-03-06T20:29:59.406Z,4.04
2023-03-06T20:32:59.389Z,4.04
2023-03-06T20:35:59.413Z,4.03
2023-03-06T20:38:59.386Z,4.03
2023-03-06T20:41:59.396Z,4.03
2023-03-06T20:44:59.396Z,4.02
2023-03-06T20:47:59.437Z,3.98
2023-03-06T20:50:59.406Z,3.95
2023-03-06T20:53:59.408Z,3.93
2023-03-06T20:56:59.406Z,3.95
2023-03-06T20:59:59.411Z,3.93
2023-03-06T21:02:59.424Z,3.94
2023-03-06T21:05:59.443Z,3.94
2023-03-06T21:08:59.420Z,3.93
2023-03-06T21:11:59.417Z,3.94
2023-03-06T21:14:59.433Z,3.94
2023-03-06T21:17:59.452Z,3.92
2023-03-06T21:20:59.428Z,3.95
2023-03-06T21:23:59.454Z,3.95
2023-03-06T21:26:59.428Z,3.98
2023-03-06T21:29:59.428Z,4.01
2023-03-06T21:32:59.445Z,4
2023-03-06T21:35:59.438Z,4.02
2023-03-06T21:38:59.430Z,4.02
2023-03-06T21:41:59.469Z,4.04
2023-03-06T21:44:59.436Z,4.04
2023-03-06T21:47:59.446Z,4.04
2023-03-06T21:50:59.440Z,4.04
2023-03-06T21:53:59.448Z,4.05
2023-03-06T21:56:59.440Z,4.05
2023-03-06T21:59:59.472Z,4.08
2023-03-06T22:02:59.454Z,4.11
2023-03-06T22:05:59.449Z,4.14
2023-03-06T22:08:59.448Z,4.17
2023-03-06T22:11:59.452Z,4.16
2023-03-06T22:14:59.449Z,4.18
2023-03-06T22:17:59.481Z,4.21
2023-03-06T22:20:59.469Z,4.23
2023-03-06T22:23:59.458Z,4.23
2023-03-06T22:26:59.455Z,4.25
2023-03-06T22:29:59.458Z,4.27
2023-03-06T22:32:59.468Z,4.26
2023-03-06T22:35:59.519Z,4.25
2023-03-06T22:38:59.459Z,4.28
2023-03-06T22:41:59.458Z,4.27
2023-03-06T22:44:59.460Z,4.27
2023-03-06T22:48:10.304Z,4.27
2023-03-06T22:50:59.467Z,4.27
2023-03-06T22:53:59.506Z,4.27
2023-03-06T22:56:59.462Z,4.27
2023-03-06T22:59:59.463Z,4.27
2023-03-06T23:02:59.487Z,4.3
2023-03-06T23:05:59.478Z,4.3
2023-03-06T23:08:59.484Z,4.3
2023-03-06T23:11:59.507Z,4.3
2023-03-06T23:14:59.513Z,4.3
2023-03-06T23:17:59.501Z,4.3
2023-03-06T23:20:59.505Z,4.27
2023-03-06T23:23:59.500Z,4.27
2023-03-06T23:26:59.499Z,4.28
2023-03-06T23:29:59.532Z,4.28
2023-03-06T23:32:59.513Z,4.29
2023-03-06T23:35:59.552Z,4.32
2023-03-06T23:38:59.506Z,4.32
2023-03-06T23:41:59.507Z,4.33
2023-03-06T23:44:59.520Z,4.35
2023-03-06T23:47:59.555Z,4.41
2023-03-06T23:50:59.517Z,4.43
2023-03-06T23:53:59.528Z,4.42
2023-03-06T23:56:59.531Z,4.47
2023-03-06T23:59:59.536Z,4.46
